DW0268 Weather Reports


time (UTC)temp
C
wind
direction
speed
KPH
gust
KPH
rain 1hr
cm
rain 24hr
cm
rain mn
cm
humidity
%
barometer
mb
20240614114531 21 221 0.0 4.8 0.00 0.00 0.00 86 1017.5
20240614113032 21 221 0.0 1.6 0.00 0.00 0.00 86 1017.5
20240614111532 20 221 0.0 9.7 0.00 0.00 0.00 86 1017.2
20240614110029 20 217 6.4 8.0 0.00 0.00 0.00 87 1016.8
20240614104534 20 213 3.2 6.4 0.00 0.00 0.00 87 1017.2
20240614103034 20 211 4.8 8.0 0.00 0.00 0.00 86 1017.0
20240614101532 21 205 4.8 12.9 0.00 0.00 0.00 85 1016.7
20240614100025 21 226 9.7 16.1 0.00 0.00 0.00 85 1016.8
20240614094523 20 230 9.7 16.1 0.00 0.00 0.00 88 1016.8
20240614093029 20 215 12.9 17.7 0.00 0.00 0.00 89 1016.5
20240614091521 20 206 11.3 14.5 0.00 0.00 0.00 90 1016.7
20240614090025 20 209 9.7 11.3 0.00 0.00 0.00 90 1017.1
20240614084517 20 201 4.8 8.0 0.00 0.00 0.00 89 1017.2
20240614083015 20 244 0.0 0.0 0.00 0.00 0.00 89 1017.6
20240614081516 20 244 1.6 6.4 0.00 0.00 0.00 90 1017.6
20240614080021 20 215 1.6 9.7 0.00 0.00 0.00 90 1017.5
20240614074512 20 234 6.4 8.0 0.00 0.00 0.00 90 1017.8
20240614073008 20 162 4.8 6.4 0.00 0.00 0.00 88 1017.6
20240614071508 20 161 4.8 8.0 0.00 0.00 0.00 89 1018.0
20240614070010 20 152 1.6 3.2 0.00 0.00 0.00 88 1017.9
20240614064504 21 152 0.0 0.0 0.00 0.00 0.00 86 1018.1
20240614063002 21 152 0.0 1.6 0.00 0.00 0.00 86 1017.8
20240614061502 21 152 1.6 3.2 0.00 0.00 0.00 85 1017.9
20240614060101 21 152 1.6 4.8 0.00 0.00 0.00 86 1018.0
20240614054601 21 154 3.2 6.4 0.00 0.00 0.00 85 1018.2
20240614053056 21 175 0.0 1.6 0.00 0.00 0.00 83 1017.9
20240614051555 22 175 0.0 3.2 0.00 0.00 0.00 82 1017.5
20240614050050 22 175 0.0 3.2 0.00 0.00 0.00 80 1017.2
20240614044604 22 175 1.6 3.2 0.00 0.00 0.00 81 1017.1
20240614043048 22 175 1.6 6.4 0.00 0.00 0.00 80 1017.2
20240614041548 22 175 1.6 6.4 0.00 0.00 0.00 81 1017.1
20240614040047 22 166 4.8 8.0 0.00 0.00 0.00 81 1016.7
20240614034546 23 175 0.0 0.0 0.00 0.00 0.00 79 1017.0
20240614033058 23 175 1.6 4.8 0.00 0.00 0.00 78 1016.9
20240614031600 24 174 0.0 4.8 0.00 0.00 0.00 73 1016.5
20240614030045 24 174 4.8 8.0 0.00 0.00 0.00 72 1015.7
20240614024543 24 164 6.4 11.3 0.00 0.00 0.00 73 1015.4
20240614023054 25 180 4.8 8.0 0.00 0.00 0.00 72 1015.5
20240614021545 24 201 3.2 6.4 0.00 0.00 0.00 75 1015.4
20240614020042 25 195 6.4 8.0 0.00 0.00 0.00 74 1015.3
20240614014541 25 211 1.6 4.8 0.00 0.00 0.00 73 1015.5
20240614013040 26 211 4.8 8.0 0.00 0.00 0.00 72 1015.6
20240614011538 26 231 4.8 8.0 0.00 0.00 0.00 72 1015.7
20240614010037 27 156 0.0 0.0 0.00 0.00 0.00 67 1015.8
20240614004536 27 156 0.0 3.2 0.00 0.00 0.00 68 1015.7
20240614003034 28 153 0.0 4.8 0.00 0.00 0.00 66 1015.7
20240614001536 28 146 3.2 8.0 0.00 0.00 0.00 63 1015.7
20240614000035 29 157 3.2 8.0 0.00 0.00 0.00 62 1015.7
20240613234531 29 158 3.2 8.0 0.00 0.00 0.00 62 1015.8
20240613233031 30 140 3.2 6.4 0.00 0.00 0.00 60 1015.9
20240613231528 30 152 3.2 9.7 0.00 0.00 0.00 56 1016.1
20240613230026 30 171 4.8 8.0 0.00 0.00 0.00 58 1016.3
20240613224526 30 157 4.8 11.3 0.00 0.00 0.00 56 1016.3
20240613223024 30 171 6.4 11.3 0.00 0.00 0.00 57 1016.4
20240613221523 30 149 6.4 11.3 0.00 0.00 0.00 55 1016.6
20240613220028 30 168 6.4 11.3 0.00 0.00 0.00 53 1016.7
20240613214519 30 159 4.8 11.3 0.00 0.00 0.00 54 1016.9
20240613213019 30 185 8.0 16.1 0.00 0.00 0.00 54 1016.9
20240613211526 30 156 4.8 8.0 0.00 0.00 0.00 53 1016.9
20240613210018 30 167 4.8 12.9 0.00 0.00 0.00 55 1017.1
20240613204518 30 157 4.8 12.9 0.00 0.00 0.00 52 1017.2
20240613203015 30 159 6.4 9.7 0.00 0.00 0.00 50 1017.2
20240613201520 30 117 6.4 12.9 0.00 0.00 0.00 52 1017.3
20240613200014 30 157 6.4 12.9 0.00 0.00 0.00 55 1017.5
20240613194516 30 144 4.8 14.5 0.00 0.00 0.00 55 1017.5
20240613193017 30 144 6.4 12.9 0.00 0.00 0.00 53 1017.7
20240613191518 29 149 6.4 11.3 0.00 0.00 0.00 54 1017.7
20240613190010 29 145 4.8 11.3 0.00 0.00 0.00 52 1017.8
20240613184510 29 148 3.2 12.9 0.00 0.00 0.00 50 1018.0
20240613183005 29 145 3.2 11.3 0.00 0.00 0.00 52 1018.1
20240613181503 29 148 6.4 11.3 0.00 0.00 0.00 53 1018.3
20240613180105 28 142 4.8 11.3 0.00 0.00 0.00 49 1018.2
20240613174634 28 152 6.4 12.9 0.00 0.00 0.00 53 1018.4
20240613173058 28 210 8.0 11.3 0.00 0.00 0.00 52 1018.5
20240613171559 27 204 9.7 14.5 0.00 0.00 0.00 57 1018.5
20240613170058 28 206 4.8 11.3 0.00 0.00 0.00 55 1018.4
20240613164554 27 153 3.2 11.3 0.00 0.00 0.00 53 1018.2
20240613163057 27 132 1.6 11.3 0.00 0.00 0.00 54 1018.3
20240613161601 27 202 4.8 9.7 0.00 0.00 0.00 50 1018.5
20240613160100 27 136 4.8 9.7 0.00 0.00 0.00 53 1018.6
20240613154549 27 164 3.2 8.0 0.00 0.00 0.00 50 1018.6
20240613153048 26 199 4.8 9.7 0.00 0.00 0.00 56 1018.6
20240613151547 26 184 0.0 6.4 0.00 0.00 0.00 67 1018.4
20240613150043 25 184 3.2 6.4 0.00 0.00 0.00 65 1018.4
20240613144543 25 157 1.6 6.4 0.00 0.00 0.00 68 1018.5
20240613143038 25 206 1.6 4.8 0.00 0.00 0.00 70 1018.5
20240613141534 24 221 0.0 3.2 0.00 0.00 0.00 74 1018.6
20240613140032 24 221 0.0 4.8 0.00 0.00 0.00 75 1018.6
20240613134533 23 221 0.0 3.2 0.00 0.00 0.00 77 1018.7
20240613133024 22 221 0.0 3.2 0.00 0.00 0.00 81 1018.6
20240613131535 21 222 0.0 3.2 0.00 0.00 0.00 84 1018.6
20240613130020 20 222 3.2 6.4 0.00 0.00 0.00 85 1018.5
20240613124516 20 221 1.6 4.8 0.00 0.00 0.00 87 1018.6
20240613123014 19 165 0.0 0.0 0.00 0.00 0.00 88 1018.4
20240613121532 18 165 0.0 1.6 0.00 0.00 0.00 89 1018.2
20240613120013 18 165 0.0 0.0 0.00 0.00 0.00 90 1018.1